sensor_id;sensor_type;location;lat;lon;timestamp;pressure;altitude;pressure_sealevel;temperature
22828;BMP180;11580;52.562;13.418;2023-04-25T00:00:31;99657.00;;;13.50
22828;BMP180;11580;52.562;13.418;2023-04-25T00:02:58;99648.00;;;13.50
22828;BMP180;11580;52.562;13.418;2023-04-25T00:05:26;99651.00;;;13.50
22828;BMP180;11580;52.562;13.418;2023-04-25T00:07:54;99655.00;;;13.50
22828;BMP180;11580;52.562;13.418;2023-04-25T00:10:22;99647.00;;;13.50
22828;BMP180;11580;52.562;13.418;2023-04-25T00:12:49;99652.00;;;13.50
22828;BMP180;11580;52.562;13.418;2023-04-25T00:15:17;99645.00;;;13.50
22828;BMP180;11580;52.562;13.418;2023-04-25T00:17:44;99637.00;;;13.50
22828;BMP180;11580;52.562;13.418;2023-04-25T00:20:12;99646.00;;;13.60
22828;BMP180;11580;52.562;13.418;2023-04-25T00:22:40;99647.00;;;13.60
22828;BMP180;11580;52.562;13.418;2023-04-25T00:25:09;99643.00;;;13.60
22828;BMP180;11580;52.562;13.418;2023-04-25T00:27:36;99647.00;;;13.60
22828;BMP180;11580;52.562;13.418;2023-04-25T00:30:06;99635.00;;;13.60
22828;BMP180;11580;52.562;13.418;2023-04-25T00:32:34;99646.00;;;13.60
22828;BMP180;11580;52.562;13.418;2023-04-25T00:35:02;99644.00;;;13.50
22828;BMP180;11580;52.562;13.418;2023-04-25T00:37:29;99648.00;;;13.50
22828;BMP180;11580;52.562;13.418;2023-04-25T00:39:58;99649.00;;;13.50
22828;BMP180;11580;52.562;13.418;2023-04-25T00:42:28;99644.00;;;13.50
22828;BMP180;11580;52.562;13.418;2023-04-25T00:44:56;99641.00;;;13.50
22828;BMP180;11580;52.562;13.418;2023-04-25T00:47:25;99631.00;;;13.50
22828;BMP180;11580;52.562;13.418;2023-04-25T00:49:52;99637.00;;;13.50
22828;BMP180;11580;52.562;13.418;2023-04-25T00:52:20;99638.00;;;13.50
22828;BMP180;11580;52.562;13.418;2023-04-25T00:54:47;99631.00;;;13.50
22828;BMP180;11580;52.562;13.418;2023-04-25T00:57:15;99634.00;;;13.50
22828;BMP180;11580;52.562;13.418;2023-04-25T00:59:45;99632.00;;;13.50
22828;BMP180;11580;52.562;13.418;2023-04-25T01:02:13;99632.00;;;13.50
22828;BMP180;11580;52.562;13.418;2023-04-25T01:04:41;99633.00;;;13.40
22828;BMP180;11580;52.562;13.418;2023-04-25T01:07:09;99632.00;;;13.50
22828;BMP180;11580;52.562;13.418;2023-04-25T01:09:37;99612.00;;;13.50
22828;BMP180;11580;52.562;13.418;2023-04-25T01:12:04;99623.00;;;13.50
22828;BMP180;11580;52.562;13.418;2023-04-25T01:14:32;99627.00;;;13.40
22828;BMP180;11580;52.562;13.418;2023-04-25T01:17:01;99616.00;;;13.40
22828;BMP180;11580;52.562;13.418;2023-04-25T01:19:28;99620.00;;;13.40
22828;BMP180;11580;52.562;13.418;2023-04-25T01:21:59;99622.00;;;13.40
22828;BMP180;11580;52.562;13.418;2023-04-25T01:24:27;99619.00;;;13.40
22828;BMP180;11580;52.562;13.418;2023-04-25T01:26:56;99620.00;;;13.40
22828;BMP180;11580;52.562;13.418;2023-04-25T01:29:24;99620.00;;;13.40
22828;BMP180;11580;52.562;13.418;2023-04-25T01:31:53;99618.00;;;13.50
22828;BMP180;11580;52.562;13.418;2023-04-25T01:34:21;99618.00;;;13.50
22828;BMP180;11580;52.562;13.418;2023-04-25T01:36:49;99627.00;;;13.50
22828;BMP180;11580;52.562;13.418;2023-04-25T01:39:19;99624.00;;;13.50
22828;BMP180;11580;52.562;13.418;2023-04-25T01:41:46;99616.00;;;13.50
22828;BMP180;11580;52.562;13.418;2023-04-25T01:44:14;99618.00;;;13.60
22828;BMP180;11580;52.562;13.418;2023-04-25T01:46:42;99619.00;;;13.60
22828;BMP180;11580;52.562;13.418;2023-04-25T01:49:10;99621.00;;;13.60
22828;BMP180;11580;52.562;13.418;2023-04-25T01:51:39;99628.00;;;13.60
22828;BMP180;11580;52.562;13.418;2023-04-25T01:54:07;99625.00;;;13.60
22828;BMP180;11580;52.562;13.418;2023-04-25T01:56:39;99637.00;;;13.70
22828;BMP180;11580;52.562;13.418;2023-04-25T01:59:09;99631.00;;;13.70
22828;BMP180;11580;52.562;13.418;2023-04-25T02:02:05;99620.00;;;13.70
22828;BMP180;11580;52.562;13.418;2023-04-25T02:04:34;99622.00;;;13.70
22828;BMP180;11580;52.562;13.418;2023-04-25T02:07:03;99628.00;;;13.70
22828;BMP180;11580;52.562;13.418;2023-04-25T02:09:46;99635.00;;;13.70
22828;BMP180;11580;52.562;13.418;2023-04-25T02:12:14;99638.00;;;13.80
22828;BMP180;11580;52.562;13.418;2023-04-25T02:15:09;99633.00;;;13.80
22828;BMP180;11580;52.562;13.418;2023-04-25T02:17:43;99628.00;;;13.80
22828;BMP180;11580;52.562;13.418;2023-04-25T02:20:11;99632.00;;;13.80
22828;BMP180;11580;52.562;13.418;2023-04-25T02:22:39;99633.00;;;13.80
22828;BMP180;11580;52.562;13.418;2023-04-25T02:25:08;99624.00;;;13.80
22828;BMP180;11580;52.562;13.418;2023-04-25T02:27:37;99626.00;;;13.80
22828;BMP180;11580;52.562;13.418;2023-04-25T02:30:06;99634.00;;;13.80
22828;BMP180;11580;52.562;13.418;2023-04-25T02:32:33;99626.00;;;13.80
22828;BMP180;11580;52.562;13.418;2023-04-25T02:35:02;99630.00;;;13.80
22828;BMP180;11580;52.562;13.418;2023-04-25T02:37:30;99631.00;;;13.80
22828;BMP180;11580;52.562;13.418;2023-04-25T02:39:57;99628.00;;;13.80
22828;BMP180;11580;52.562;13.418;2023-04-25T02:42:26;99632.00;;;13.80
22828;BMP180;11580;52.562;13.418;2023-04-25T02:44:54;99632.00;;;13.80
22828;BMP180;11580;52.562;13.418;2023-04-25T02:47:22;99624.00;;;13.80
22828;BMP180;11580;52.562;13.418;2023-04-25T02:49:49;99618.00;;;13.80
22828;BMP180;11580;52.562;13.418;2023-04-25T02:52:17;99622.00;;;13.80
22828;BMP180;11580;52.562;13.418;2023-04-25T02:54:49;99632.00;;;13.70
22828;BMP180;11580;52.562;13.418;2023-04-25T02:57:17;99623.00;;;13.70
22828;BMP180;11580;52.562;13.418;2023-04-25T02:59:44;99630.00;;;13.70
22828;BMP180;11580;52.562;13.418;2023-04-25T03:02:12;99630.00;;;13.70
22828;BMP180;11580;52.562;13.418;2023-04-25T03:04:39;99633.00;;;13.80
22828;BMP180;11580;52.562;13.418;2023-04-25T03:07:07;99627.00;;;13.80
22828;BMP180;11580;52.562;13.418;2023-04-25T03:09:34;99620.00;;;13.80
22828;BMP180;11580;52.562;13.418;2023-04-25T03:12:02;99622.00;;;13.80
22828;BMP180;11580;52.562;13.418;2023-04-25T03:14:32;99632.00;;;13.80
22828;BMP180;11580;52.562;13.418;2023-04-25T03:17:00;99629.00;;;13.80
22828;BMP180;11580;52.562;13.418;2023-04-25T03:19:28;99631.00;;;13.80
22828;BMP180;11580;52.562;13.418;2023-04-25T03:21:56;99631.00;;;13.80
22828;BMP180;11580;52.562;13.418;2023-04-25T03:24:23;99622.00;;;13.90
22828;BMP180;11580;52.562;13.418;2023-04-25T03:26:50;99625.00;;;13.90
22828;BMP180;11580;52.562;13.418;2023-04-25T03:29:17;99628.00;;;13.90
22828;BMP180;11580;52.562;13.418;2023-04-25T03:31:46;99629.00;;;13.90
22828;BMP180;11580;52.562;13.418;2023-04-25T03:34:13;99618.00;;;13.90
22828;BMP180;11580;52.562;13.418;2023-04-25T03:36:42;99628.00;;;13.90
22828;BMP180;11580;52.562;13.418;2023-04-25T03:39:11;99632.00;;;13.90
22828;BMP180;11580;52.562;13.418;2023-04-25T03:41:40;99634.00;;;13.90
22828;BMP180;11580;52.562;13.418;2023-04-25T03:44:13;99632.00;;;13.90
22828;BMP180;11580;52.562;13.418;2023-04-25T03:46:41;99632.00;;;13.90
22828;BMP180;11580;52.562;13.418;2023-04-25T03:49:08;99628.00;;;13.90
22828;BMP180;11580;52.562;13.418;2023-04-25T03:51:57;99637.00;;;13.90
22828;BMP180;11580;52.562;13.418;2023-04-25T03:54:24;99634.00;;;13.90
22828;BMP180;11580;52.562;13.418;2023-04-25T03:56:59;99628.00;;;13.90
22828;BMP180;11580;52.562;13.418;2023-04-25T03:59:28;99642.00;;;13.80
22828;BMP180;11580;52.562;13.418;2023-04-25T04:01:56;99633.00;;;13.80
22828;BMP180;11580;52.562;13.418;2023-04-25T04:04:23;99645.00;;;13.80
22828;BMP180;11580;52.562;13.418;2023-04-25T04:06:51;99642.00;;;13.80
22828;BMP180;11580;52.562;13.418;2023-04-25T04:09:26;99650.00;;;13.80
22828;BMP180;11580;52.562;13.418;2023-04-25T04:11:55;99649.00;;;13.80
22828;BMP180;11580;52.562;13.418;2023-04-25T04:14:22;99655.00;;;13.80
22828;BMP180;11580;52.562;13.418;2023-04-25T04:16:51;99656.00;;;13.80
22828;BMP180;11580;52.562;13.418;2023-04-25T04:19:19;99654.00;;;13.70
22828;BMP180;11580;52.562;13.418;2023-04-25T04:22:03;99662.00;;;13.70
22828;BMP180;11580;52.562;13.418;2023-04-25T04:24:33;99665.00;;;13.70
22828;BMP180;11580;52.562;13.418;2023-04-25T04:27:03;99661.00;;;13.70
22828;BMP180;11580;52.562;13.418;2023-04-25T04:30:05;99663.00;;;13.70
22828;BMP180;11580;52.562;13.418;2023-04-25T04:32:38;99666.00;;;13.70
22828;BMP180;11580;52.562;13.418;2023-04-25T04:35:07;99669.00;;;13.70
22828;BMP180;11580;52.562;13.418;2023-04-25T04:37:35;99672.00;;;13.70
22828;BMP180;11580;52.562;13.418;2023-04-25T04:40:06;99668.00;;;13.70
22828;BMP180;11580;52.562;13.418;2023-04-25T04:42:44;99666.00;;;13.70
22828;BMP180;11580;52.562;13.418;2023-04-25T04:45:32;99666.00;;;13.70
22828;BMP180;11580;52.562;13.418;2023-04-25T04:48:19;99677.00;;;13.70
22828;BMP180;11580;52.562;13.418;2023-04-25T04:51:16;99678.00;;;13.70
22828;BMP180;11580;52.562;13.418;2023-04-25T04:54:03;99683.00;;;13.80
22828;BMP180;11580;52.562;13.418;2023-04-25T04:56:51;99678.00;;;13.80
22828;BMP180;11580;52.562;13.418;2023-04-25T04:59:21;99680.00;;;13.80
22828;BMP180;11580;52.562;13.418;2023-04-25T05:02:02;99676.00;;;13.90
22828;BMP180;11580;52.562;13.418;2023-04-25T05:04:45;99679.00;;;13.90
22828;BMP180;11580;52.562;13.418;2023-04-25T05:07:26;99677.00;;;13.90
22828;BMP180;11580;52.562;13.418;2023-04-25T05:10:04;99679.00;;;14.00
22828;BMP180;11580;52.562;13.418;2023-04-25T05:12:43;99683.00;;;14.00
22828;BMP180;11580;52.562;13.418;2023-04-25T05:15:17;99683.00;;;14.10
22828;BMP180;11580;52.562;13.418;2023-04-25T05:18:03;99683.00;;;14.20
22828;BMP180;11580;52.562;13.418;2023-04-25T05:20:54;99679.00;;;14.20
22828;BMP180;11580;52.562;13.418;2023-04-25T05:23:42;99686.00;;;14.20
22828;BMP180;11580;52.562;13.418;2023-04-25T05:26:21;99685.00;;;14.30
22828;BMP180;11580;52.562;13.418;2023-04-25T05:29:01;99686.00;;;14.30
22828;BMP180;11580;52.562;13.418;2023-04-25T05:31:37;99649.00;;;14.30
22828;BMP180;11580;52.562;13.418;2023-04-25T05:34:09;99683.00;;;14.40
22828;BMP180;11580;52.562;13.418;2023-04-25T05:36:45;99694.00;;;14.40
22828;BMP180;11580;52.562;13.418;2023-04-25T05:39:15;99688.00;;;14.40
22828;BMP180;11580;52.562;13.418;2023-04-25T05:42:03;99691.00;;;14.40
22828;BMP180;11580;52.562;13.418;2023-04-25T05:44:44;99701.00;;;14.40
22828;BMP180;11580;52.562;13.418;2023-04-25T05:47:21;99710.00;;;14.40
22828;BMP180;11580;52.562;13.418;2023-04-25T05:50:07;99701.00;;;14.40
22828;BMP180;11580;52.562;13.418;2023-04-25T05:52:50;99705.00;;;14.50
22828;BMP180;11580;52.562;13.418;2023-04-25T05:55:24;99708.00;;;14.50
22828;BMP180;11580;52.562;13.418;2023-04-25T05:57:52;99707.00;;;14.50
22828;BMP180;11580;52.562;13.418;2023-04-25T06:00:21;99703.00;;;14.50
22828;BMP180;11580;52.562;13.418;2023-04-25T06:02:49;99716.00;;;14.50
22828;BMP180;11580;52.562;13.418;2023-04-25T06:05:17;99719.00;;;14.50
22828;BMP180;11580;52.562;13.418;2023-04-25T06:07:46;99721.00;;;14.50
22828;BMP180;11580;52.562;13.418;2023-04-25T06:10:14;99716.00;;;14.50
22828;BMP180;11580;52.562;13.418;2023-04-25T06:12:42;99722.00;;;14.50
22828;BMP180;11580;52.562;13.418;2023-04-25T06:15:10;99723.00;;;14.60
22828;BMP180;11580;52.562;13.418;2023-04-25T06:17:39;99721.00;;;14.60
22828;BMP180;11580;52.562;13.418;2023-04-25T06:20:08;99730.00;;;14.60
22828;BMP180;11580;52.562;13.418;2023-04-25T06:22:35;99742.00;;;14.70
22828;BMP180;11580;52.562;13.418;2023-04-25T06:25:04;99733.00;;;14.70
22828;BMP180;11580;52.562;13.418;2023-04-25T06:27:34;99695.00;;;14.70
22828;BMP180;11580;52.562;13.418;2023-04-25T06:30:06;99723.00;;;14.60
22828;BMP180;11580;52.562;13.418;2023-04-25T06:32:34;99731.00;;;14.60
22828;BMP180;11580;52.562;13.418;2023-04-25T06:35:04;99731.00;;;14.60
22828;BMP180;11580;52.562;13.418;2023-04-25T06:37:32;99729.00;;;14.60
22828;BMP180;11580;52.562;13.418;2023-04-25T06:40:00;99721.00;;;14.60
22828;BMP180;11580;52.562;13.418;2023-04-25T06:42:27;99731.00;;;14.60
22828;BMP180;11580;52.562;13.418;2023-04-25T06:44:58;99739.00;;;14.60
22828;BMP180;11580;52.562;13.418;2023-04-25T06:47:28;99729.00;;;14.60
22828;BMP180;11580;52.562;13.418;2023-04-25T06:49:55;99732.00;;;14.60
22828;BMP180;11580;52.562;13.418;2023-04-25T06:52:24;99736.00;;;14.60
22828;BMP180;11580;52.562;13.418;2023-04-25T06:54:53;99728.00;;;14.60
22828;BMP180;11580;52.562;13.418;2023-04-25T06:57:43;99734.00;;;14.60
22828;BMP180;11580;52.562;13.418;2023-04-25T07:00:29;99736.00;;;14.50
22828;BMP180;11580;52.562;13.418;2023-04-25T07:02:56;99737.00;;;14.50
22828;BMP180;11580;52.562;13.418;2023-04-25T07:05:23;99736.00;;;14.50
22828;BMP180;11580;52.562;13.418;2023-04-25T07:07:52;99738.00;;;14.50
22828;BMP180;11580;52.562;13.418;2023-04-25T07:10:19;99742.00;;;14.50
22828;BMP180;11580;52.562;13.418;2023-04-25T07:12:47;99743.00;;;14.40
22828;BMP180;11580;52.562;13.418;2023-04-25T07:15:15;99753.00;;;14.40
22828;BMP180;11580;52.562;13.418;2023-04-25T07:17:45;99748.00;;;14.40
22828;BMP180;11580;52.562;13.418;2023-04-25T07:20:12;99752.00;;;14.40
22828;BMP180;11580;52.562;13.418;2023-04-25T07:22:40;99753.00;;;14.40
22828;BMP180;11580;52.562;13.418;2023-04-25T07:25:10;99755.00;;;14.30
22828;BMP180;11580;52.562;13.418;2023-04-25T07:27:37;99761.00;;;14.40
22828;BMP180;11580;52.562;13.418;2023-04-25T07:30:23;99764.00;;;14.40
22828;BMP180;11580;52.562;13.418;2023-04-25T07:32:50;99769.00;;;14.40
22828;BMP180;11580;52.562;13.418;2023-04-25T07:35:18;99771.00;;;14.50
22828;BMP180;11580;52.562;13.418;2023-04-25T07:37:45;99772.00;;;14.50
22828;BMP180;11580;52.562;13.418;2023-04-25T07:40:17;99779.00;;;14.60
22828;BMP180;11580;52.562;13.418;2023-04-25T07:42:52;99773.00;;;14.60
22828;BMP180;11580;52.562;13.418;2023-04-25T07:45:36;99779.00;;;14.50
22828;BMP180;11580;52.562;13.418;2023-04-25T07:48:03;99788.00;;;14.50
22828;BMP180;11580;52.562;13.418;2023-04-25T07:50:34;99786.00;;;14.40
22828;BMP180;11580;52.562;13.418;2023-04-25T07:53:02;99786.00;;;14.40
22828;BMP180;11580;52.562;13.418;2023-04-25T07:55:41;99791.00;;;14.50
22828;BMP180;11580;52.562;13.418;2023-04-25T07:58:15;99788.00;;;14.50
22828;BMP180;11580;52.562;13.418;2023-04-25T08:00:47;99811.00;;;14.50
22828;BMP180;11580;52.562;13.418;2023-04-25T08:03:27;99812.00;;;14.50
22828;BMP180;11580;52.562;13.418;2023-04-25T08:05:55;99804.00;;;14.60
22828;BMP180;11580;52.562;13.418;2023-04-25T08:08:25;99812.00;;;14.70
22828;BMP180;11580;52.562;13.418;2023-04-25T08:10:53;99804.00;;;14.80
22828;BMP180;11580;52.562;13.418;2023-04-25T08:13:21;99819.00;;;15.00
22828;BMP180;11580;52.562;13.418;2023-04-25T08:15:48;99819.00;;;15.20
22828;BMP180;11580;52.562;13.418;2023-04-25T08:18:15;99822.00;;;15.50
22828;BMP180;11580;52.562;13.418;2023-04-25T08:20:43;99826.00;;;15.60
22828;BMP180;11580;52.562;13.418;2023-04-25T08:23:12;99826.00;;;15.70
22828;BMP180;11580;52.562;13.418;2023-04-25T08:25:47;99829.00;;;15.80
22828;BMP180;11580;52.562;13.418;2023-04-25T08:28:19;99833.00;;;15.90
22828;BMP180;11580;52.562;13.418;2023-04-25T08:30:47;99836.00;;;16.00
22828;BMP180;11580;52.562;13.418;2023-04-25T08:33:18;99842.00;;;16.10
22828;BMP180;11580;52.562;13.418;2023-04-25T08:35:45;99841.00;;;16.20
22828;BMP180;11580;52.562;13.418;2023-04-25T08:38:14;99852.00;;;16.20
22828;BMP180;11580;52.562;13.418;2023-04-25T08:40:44;99839.00;;;16.30
22828;BMP180;11580;52.562;13.418;2023-04-25T08:43:19;99864.00;;;16.40
22828;BMP180;11580;52.562;13.418;2023-04-25T08:45:48;99863.00;;;16.40
22828;BMP180;11580;52.562;13.418;2023-04-25T08:48:32;99873.00;;;16.40
22828;BMP180;11580;52.562;13.418;2023-04-25T08:51:02;99870.00;;;16.40
22828;BMP180;11580;52.562;13.418;2023-04-25T08:53:32;99862.00;;;16.50
22828;BMP180;11580;52.562;13.418;2023-04-25T08:56:02;99862.00;;;16.50
22828;BMP180;11580;52.562;13.418;2023-04-25T08:58:36;99880.00;;;16.60
22828;BMP180;11580;52.562;13.418;2023-04-25T09:01:04;99875.00;;;16.70
22828;BMP180;11580;52.562;13.418;2023-04-25T09:03:38;99865.00;;;16.80
22828;BMP180;11580;52.562;13.418;2023-04-25T09:06:06;99883.00;;;16.90
22828;BMP180;11580;52.562;13.418;2023-04-25T09:08:36;99886.00;;;17.00
22828;BMP180;11580;52.562;13.418;2023-04-25T09:11:03;99880.00;;;17.00
22828;BMP180;11580;52.562;13.418;2023-04-25T09:13:30;99888.00;;;17.00
22828;BMP180;11580;52.562;13.418;2023-04-25T09:16:18;99885.00;;;16.90
22828;BMP180;11580;52.562;13.418;2023-04-25T09:19:21;99906.00;;;16.90
22828;BMP180;11580;52.562;13.418;2023-04-25T09:21:50;99900.00;;;16.80
22828;BMP180;11580;52.562;13.418;2023-04-25T09:24:30;99900.00;;;16.80
22828;BMP180;11580;52.562;13.418;2023-04-25T09:26:57;99908.00;;;16.70
22828;BMP180;11580;52.562;13.418;2023-04-25T09:29:30;99884.00;;;16.70
22828;BMP180;11580;52.562;13.418;2023-04-25T09:32:22;99903.00;;;16.70
22828;BMP180;11580;52.562;13.418;2023-04-25T09:34:53;99881.00;;;16.80
22828;BMP180;11580;52.562;13.418;2023-04-25T09:37:24;99909.00;;;16.80
22828;BMP180;11580;52.562;13.418;2023-04-25T09:40:12;99918.00;;;16.90
22828;BMP180;11580;52.562;13.418;2023-04-25T09:43:00;99908.00;;;17.00
22828;BMP180;11580;52.562;13.418;2023-04-25T09:45:29;99915.00;;;17.00
22828;BMP180;11580;52.562;13.418;2023-04-25T09:48:03;99910.00;;;17.00
22828;BMP180;11580;52.562;13.418;2023-04-25T09:50:32;99926.00;;;17.10
22828;BMP180;11580;52.562;13.418;2023-04-25T09:53:07;99921.00;;;17.10
22828;BMP180;11580;52.562;13.418;2023-04-25T09:55:56;99915.00;;;17.10
22828;BMP180;11580;52.562;13.418;2023-04-25T09:58:24;99926.00;;;17.20
22828;BMP180;11580;52.562;13.418;2023-04-25T10:00:52;99920.00;;;17.10
22828;BMP180;11580;52.562;13.418;2023-04-25T10:03:37;99923.00;;;17.20
22828;BMP180;11580;52.562;13.418;2023-04-25T10:06:32;99952.00;;;17.20
22828;BMP180;11580;52.562;13.418;2023-04-25T10:09:01;99930.00;;;17.10
22828;BMP180;11580;52.562;13.418;2023-04-25T10:11:31;99904.00;;;17.10
22828;BMP180;11580;52.562;13.418;2023-04-25T10:14:00;99928.00;;;17.00
22828;BMP180;11580;52.562;13.418;2023-04-25T10:16:29;99927.00;;;17.00
22828;BMP180;11580;52.562;13.418;2023-04-25T10:18:58;99920.00;;;17.10
22828;BMP180;11580;52.562;13.418;2023-04-25T10:21:28;99938.00;;;17.10
22828;BMP180;11580;52.562;13.418;2023-04-25T10:23:58;99938.00;;;17.20
22828;BMP180;11580;52.562;13.418;2023-04-25T10:26:26;99940.00;;;17.20
22828;BMP180;11580;52.562;13.418;2023-04-25T10:28:58;99938.00;;;17.30
22828;BMP180;11580;52.562;13.418;2023-04-25T10:31:25;99943.00;;;17.30
22828;BMP180;11580;52.562;13.418;2023-04-25T10:33:53;99942.00;;;17.40
22828;BMP180;11580;52.562;13.418;2023-04-25T10:36:23;99945.00;;;17.50
22828;BMP180;11580;52.562;13.418;2023-04-25T10:38:52;99954.00;;;17.40
22828;BMP180;11580;52.562;13.418;2023-04-25T10:41:21;99946.00;;;17.50
22828;BMP180;11580;52.562;13.418;2023-04-25T10:43:59;99932.00;;;17.50
22828;BMP180;11580;52.562;13.418;2023-04-25T10:46:29;99956.00;;;17.50
22828;BMP180;11580;52.562;13.418;2023-04-25T10:48:58;99956.00;;;17.60
22828;BMP180;11580;52.562;13.418;2023-04-25T10:51:28;99959.00;;;17.70
22828;BMP180;11580;52.562;13.418;2023-04-25T10:54:01;99949.00;;;17.80
22828;BMP180;11580;52.562;13.418;2023-04-25T10:56:30;99966.00;;;17.90
22828;BMP180;11580;52.562;13.418;2023-04-25T10:59:06;99963.00;;;18.00
22828;BMP180;11580;52.562;13.418;2023-04-25T11:01:41;99975.00;;;18.10
22828;BMP180;11580;52.562;13.418;2023-04-25T11:04:24;99963.00;;;18.10
22828;BMP180;11580;52.562;13.418;2023-04-25T11:07:05;99966.00;;;18.10
22828;BMP180;11580;52.562;13.418;2023-04-25T11:09:37;99967.00;;;18.00
22828;BMP180;11580;52.562;13.418;2023-04-25T11:12:09;99972.00;;;17.90
22828;BMP180;11580;52.562;13.418;2023-04-25T11:14:37;99986.00;;;17.70
22828;BMP180;11580;52.562;13.418;2023-04-25T11:17:04;99991.00;;;17.50
22828;BMP180;11580;52.562;13.418;2023-04-25T11:19:32;99993.00;;;17.10
22828;BMP180;11580;52.562;13.418;2023-04-25T11:22:03;99991.00;;;16.80
22828;BMP180;11580;52.562;13.418;2023-04-25T11:24:32;99983.00;;;16.70
22828;BMP180;11580;52.562;13.418;2023-04-25T11:27:00;99995.00;;;16.50
22828;BMP180;11580;52.562;13.418;2023-04-25T11:29:31;100004.00;;;16.40
22828;BMP180;11580;52.562;13.418;2023-04-25T11:31:59;100006.00;;;16.30
22828;BMP180;11580;52.562;13.418;2023-04-25T11:34:27;100011.00;;;16.40
22828;BMP180;11580;52.562;13.418;2023-04-25T11:36:57;100011.00;;;16.50
22828;BMP180;11580;52.562;13.418;2023-04-25T11:39:26;100005.00;;;16.60
22828;BMP180;11580;52.562;13.418;2023-04-25T11:41:54;100011.00;;;16.70
22828;BMP180;11580;52.562;13.418;2023-04-25T11:44:22;100025.00;;;16.80
22828;BMP180;11580;52.562;13.418;2023-04-25T11:46:49;100009.00;;;16.80
22828;BMP180;11580;52.562;13.418;2023-04-25T11:49:16;100032.00;;;16.90
22828;BMP180;11580;52.562;13.418;2023-04-25T11:51:46;100025.00;;;17.00
22828;BMP180;11580;52.562;13.418;2023-04-25T11:54:14;100025.00;;;17.00
22828;BMP180;11580;52.562;13.418;2023-04-25T11:56:44;100018.00;;;17.00
22828;BMP180;11580;52.562;13.418;2023-04-25T11:59:12;100020.00;;;17.10
22828;BMP180;11580;52.562;13.418;2023-04-25T12:01:47;100022.00;;;17.20
22828;BMP180;11580;52.562;13.418;2023-04-25T12:04:17;100040.00;;;17.30
22828;BMP180;11580;52.562;13.418;2023-04-25T12:06:46;100030.00;;;17.30
22828;BMP180;11580;52.562;13.418;2023-04-25T12:09:15;100013.00;;;17.50
22828;BMP180;11580;52.562;13.418;2023-04-25T12:11:47;100027.00;;;17.60
22828;BMP180;11580;52.562;13.418;2023-04-25T12:14:22;100049.00;;;17.70
22828;BMP180;11580;52.562;13.418;2023-04-25T12:16:50;100040.00;;;17.60
22828;BMP180;11580;52.562;13.418;2023-04-25T12:19:20;100043.00;;;17.50
22828;BMP180;11580;52.562;13.418;2023-04-25T12:21:48;100054.00;;;17.40
22828;BMP180;11580;52.562;13.418;2023-04-25T12:24:17;100049.00;;;17.40
22828;BMP180;11580;52.562;13.418;2023-04-25T12:26:51;100046.00;;;17.40
22828;BMP180;11580;52.562;13.418;2023-04-25T12:29:22;100044.00;;;17.40
22828;BMP180;11580;52.562;13.418;2023-04-25T12:31:51;100049.00;;;17.30
22828;BMP180;11580;52.562;13.418;2023-04-25T12:34:18;100038.00;;;17.40
22828;BMP180;11580;52.562;13.418;2023-04-25T12:36:46;100027.00;;;17.40
22828;BMP180;11580;52.562;13.418;2023-04-25T12:39:17;100035.00;;;17.50
22828;BMP180;11580;52.562;13.418;2023-04-25T12:41:45;100055.00;;;17.40
22828;BMP180;11580;52.562;13.418;2023-04-25T12:44:14;100046.00;;;17.40
22828;BMP180;11580;52.562;13.418;2023-04-25T12:46:42;100040.00;;;17.30
22828;BMP180;11580;52.562;13.418;2023-04-25T12:49:09;100031.00;;;17.20
22828;BMP180;11580;52.562;13.418;2023-04-25T12:51:36;100046.00;;;17.20
22828;BMP180;11580;52.562;13.418;2023-04-25T12:54:06;100053.00;;;17.20
22828;BMP180;11580;52.562;13.418;2023-04-25T12:56:34;100045.00;;;17.30
22828;BMP180;11580;52.562;13.418;2023-04-25T12:59:02;100043.00;;;17.40
22828;BMP180;11580;52.562;13.418;2023-04-25T13:01:31;100051.00;;;17.30
22828;BMP180;11580;52.562;13.418;2023-04-25T13:03:59;100054.00;;;17.20
22828;BMP180;11580;52.562;13.418;2023-04-25T13:06:27;100043.00;;;17.20
22828;BMP180;11580;52.562;13.418;2023-04-25T13:08:55;100063.00;;;17.10
22828;BMP180;11580;52.562;13.418;2023-04-25T13:11:22;100043.00;;;17.00
22828;BMP180;11580;52.562;13.418;2023-04-25T13:13:50;100066.00;;;16.90
22828;BMP180;11580;52.562;13.418;2023-04-25T13:16:17;100056.00;;;16.90
22828;BMP180;11580;52.562;13.418;2023-04-25T13:18:47;100053.00;;;16.90
22828;BMP180;11580;52.562;13.418;2023-04-25T13:21:15;100044.00;;;16.90
22828;BMP180;11580;52.562;13.418;2023-04-25T13:23:42;100055.00;;;16.90
22828;BMP180;11580;52.562;13.418;2023-04-25T13:26:10;100040.00;;;16.90
22828;BMP180;11580;52.562;13.418;2023-04-25T13:28:37;100039.00;;;16.90
22828;BMP180;11580;52.562;13.418;2023-04-25T13:31:06;100048.00;;;16.80
22828;BMP180;11580;52.562;13.418;2023-04-25T13:33:33;100060.00;;;16.70
22828;BMP180;11580;52.562;13.418;2023-04-25T13:36:03;100062.00;;;16.60
22828;BMP180;11580;52.562;13.418;2023-04-25T13:38:31;100081.00;;;16.30
22828;BMP180;11580;52.562;13.418;2023-04-25T13:40:58;100061.00;;;16.20
22828;BMP180;11580;52.562;13.418;2023-04-25T13:43:26;100073.00;;;16.10
22828;BMP180;11580;52.562;13.418;2023-04-25T13:45:53;100070.00;;;16.00
22828;BMP180;11580;52.562;13.418;2023-04-25T13:48:21;100064.00;;;15.90
22828;BMP180;11580;52.562;13.418;2023-04-25T13:50:48;100069.00;;;15.90
22828;BMP180;11580;52.562;13.418;2023-04-25T13:53:17;100080.00;;;15.80
22828;BMP180;11580;52.562;13.418;2023-04-25T13:55:44;100086.00;;;15.80
22828;BMP180;11580;52.562;13.418;2023-04-25T13:58:11;100079.00;;;15.90
22828;BMP180;11580;52.562;13.418;2023-04-25T14:00:40;100067.00;;;16.00
22828;BMP180;11580;52.562;13.418;2023-04-25T14:03:09;100081.00;;;16.10
22828;BMP180;11580;52.562;13.418;2023-04-25T14:05:36;100074.00;;;16.10
22828;BMP180;11580;52.562;13.418;2023-04-25T14:08:06;100077.00;;;16.30
22828;BMP180;11580;52.562;13.418;2023-04-25T14:10:35;100075.00;;;16.30
22828;BMP180;11580;52.562;13.418;2023-04-25T14:13:04;100067.00;;;16.30
22828;BMP180;11580;52.562;13.418;2023-04-25T14:15:32;100089.00;;;16.40